sensor_id;sensor_type;location;lat;lon;timestamp;P1;durP1;ratioP1;P2;durP2;ratioP2
24787;SDS011;12883;52.662;5.196;2023-06-10T00:02:02;5.63;;;5.63;;
24787;SDS011;12883;52.662;5.196;2023-06-10T00:04:28;5.45;;;5.45;;
24787;SDS011;12883;52.662;5.196;2023-06-10T00:06:54;5.15;;;5.15;;
24787;SDS011;12883;52.662;5.196;2023-06-10T00:09:20;5.80;;;5.80;;
24787;SDS011;12883;52.662;5.196;2023-06-10T00:11:46;5.30;;;5.30;;
24787;SDS011;12883;52.662;5.196;2023-06-10T00:14:12;4.75;;;4.75;;
24787;SDS011;12883;52.662;5.196;2023-06-10T00:16:38;5.15;;;5.15;;
24787;SDS011;12883;52.662;5.196;2023-06-10T00:19:04;6.20;;;6.20;;
24787;SDS011;12883;52.662;5.196;2023-06-10T00:21:31;5.82;;;5.82;;
24787;SDS011;12883;52.662;5.196;2023-06-10T00:24:05;5.80;;;5.80;;
24787;SDS011;12883;52.662;5.196;2023-06-10T00:26:39;5.20;;;5.20;;
24787;SDS011;12883;52.662;5.196;2023-06-10T00:29:05;5.03;;;5.03;;
24787;SDS011;12883;52.662;5.196;2023-06-10T00:31:31;5.90;;;5.90;;
24787;SDS011;12883;52.662;5.196;2023-06-10T00:33:56;5.50;;;5.50;;
24787;SDS011;12883;52.662;5.196;2023-06-10T00:36:21;5.05;;;5.05;;
24787;SDS011;12883;52.662;5.196;2023-06-10T00:38:47;5.35;;;5.35;;
24787;SDS011;12883;52.662;5.196;2023-06-10T00:41:12;5.00;;;5.00;;
24787;SDS011;12883;52.662;5.196;2023-06-10T00:43:38;5.28;;;5.28;;
24787;SDS011;12883;52.662;5.196;2023-06-10T00:46:03;5.03;;;5.03;;
24787;SDS011;12883;52.662;5.196;2023-06-10T00:48:29;5.10;;;5.10;;
24787;SDS011;12883;52.662;5.196;2023-06-10T00:50:54;5.20;;;5.20;;
24787;SDS011;12883;52.662;5.196;2023-06-10T00:53:21;5.38;;;5.38;;
24787;SDS011;12883;52.662;5.196;2023-06-10T00:55:47;5.97;;;5.97;;
24787;SDS011;12883;52.662;5.196;2023-06-10T00:58:12;5.38;;;5.38;;
24787;SDS011;12883;52.662;5.196;2023-06-10T01:00:38;5.28;;;5.28;;
24787;SDS011;12883;52.662;5.196;2023-06-10T01:03:04;5.82;;;5.82;;
24787;SDS011;12883;52.662;5.196;2023-06-10T01:05:32;5.68;;;5.68;;
24787;SDS011;12883;52.662;5.196;2023-06-10T01:08:09;5.65;;;5.65;;
24787;SDS011;12883;52.662;5.196;2023-06-10T01:10:53;5.30;;;5.30;;
24787;SDS011;12883;52.662;5.196;2023-06-10T01:13:23;5.00;;;5.00;;
24787;SDS011;12883;52.662;5.196;2023-06-10T01:15:53;5.43;;;5.43;;
24787;SDS011;12883;52.662;5.196;2023-06-10T01:18:20;5.05;;;5.05;;
24787;SDS011;12883;52.662;5.196;2023-06-10T01:20:46;5.15;;;5.15;;
24787;SDS011;12883;52.662;5.196;2023-06-10T01:23:13;5.00;;;5.00;;
24787;SDS011;12883;52.662;5.196;2023-06-10T01:25:47;5.30;;;5.30;;
24787;SDS011;12883;52.662;5.196;2023-06-10T01:33:38;5.90;;;5.90;;
24787;SDS011;12883;52.662;5.196;2023-06-10T01:36:13;5.93;;;5.93;;
24787;SDS011;12883;52.662;5.196;2023-06-10T01:38:44;5.32;;;5.32;;
24787;SDS011;12883;52.662;5.196;2023-06-10T01:41:15;5.07;;;5.07;;
24787;SDS011;12883;52.662;5.196;2023-06-10T01:43:42;5.20;;;5.20;;
24787;SDS011;12883;52.662;5.196;2023-06-10T01:46:09;5.57;;;5.57;;
24787;SDS011;12883;52.662;5.196;2023-06-10T01:48:34;6.25;;;6.25;;
24787;SDS011;12883;52.662;5.196;2023-06-10T01:51:00;5.75;;;5.75;;
24787;SDS011;12883;52.662;5.196;2023-06-10T01:53:25;5.28;;;5.28;;
24787;SDS011;12883;52.662;5.196;2023-06-10T01:55:51;5.57;;;5.57;;
24787;SDS011;12883;52.662;5.196;2023-06-10T01:58:16;5.75;;;5.75;;
24787;SDS011;12883;52.662;5.196;2023-06-10T02:00:42;6.00;;;6.00;;
24787;SDS011;12883;52.662;5.196;2023-06-10T02:03:07;5.65;;;5.65;;
24787;SDS011;12883;52.662;5.196;2023-06-10T02:05:32;5.65;;;5.65;;
24787;SDS011;12883;52.662;5.196;2023-06-10T02:07:58;5.88;;;5.88;;
24787;SDS011;12883;52.662;5.196;2023-06-10T02:10:23;6.18;;;6.18;;
24787;SDS011;12883;52.662;5.196;2023-06-10T02:12:49;5.90;;;5.90;;
24787;SDS011;12883;52.662;5.196;2023-06-10T02:15:14;6.05;;;6.05;;
24787;SDS011;12883;52.662;5.196;2023-06-10T02:17:40;5.75;;;5.75;;
24787;SDS011;12883;52.662;5.196;2023-06-10T02:20:05;6.63;;;6.63;;
24787;SDS011;12883;52.662;5.196;2023-06-10T02:22:35;5.60;;;5.60;;
24787;SDS011;12883;52.662;5.196;2023-06-10T02:25:02;5.65;;;5.65;;
24787;SDS011;12883;52.662;5.196;2023-06-10T02:27:28;6.55;;;6.55;;
24787;SDS011;12883;52.662;5.196;2023-06-10T02:29:55;5.93;;;5.93;;
24787;SDS011;12883;52.662;5.196;2023-06-10T02:32:21;5.97;;;5.97;;
24787;SDS011;12883;52.662;5.196;2023-06-10T02:34:46;6.80;;;6.80;;
24787;SDS011;12883;52.662;5.196;2023-06-10T02:37:12;6.50;;;6.50;;
24787;SDS011;12883;52.662;5.196;2023-06-10T02:39:38;5.88;;;5.88;;
24787;SDS011;12883;52.662;5.196;2023-06-10T02:42:03;6.15;;;6.15;;
24787;SDS011;12883;52.662;5.196;2023-06-10T02:44:30;6.50;;;6.50;;
24787;SDS011;12883;52.662;5.196;2023-06-10T02:46:55;6.40;;;6.40;;
24787;SDS011;12883;52.662;5.196;2023-06-10T02:49:21;5.95;;;5.95;;
24787;SDS011;12883;52.662;5.196;2023-06-10T02:51:46;6.50;;;6.50;;
24787;SDS011;12883;52.662;5.196;2023-06-10T02:54:11;6.10;;;6.10;;
24787;SDS011;12883;52.662;5.196;2023-06-10T02:56:37;6.32;;;6.32;;
24787;SDS011;12883;52.662;5.196;2023-06-10T02:59:06;6.30;;;6.30;;
24787;SDS011;12883;52.662;5.196;2023-06-10T03:01:33;6.22;;;6.22;;
24787;SDS011;12883;52.662;5.196;2023-06-10T03:04:01;6.05;;;6.05;;
24787;SDS011;12883;52.662;5.196;2023-06-10T03:06:28;6.78;;;6.78;;
24787;SDS011;12883;52.662;5.196;2023-06-10T03:08:54;6.40;;;6.40;;
24787;SDS011;12883;52.662;5.196;2023-06-10T03:11:19;6.35;;;6.35;;
24787;SDS011;12883;52.662;5.196;2023-06-10T03:13:45;6.50;;;6.50;;
24787;SDS011;12883;52.662;5.196;2023-06-10T03:16:10;7.30;;;7.30;;
24787;SDS011;12883;52.662;5.196;2023-06-10T03:18:37;6.70;;;6.70;;
24787;SDS011;12883;52.662;5.196;2023-06-10T03:21:02;6.80;;;6.80;;
24787;SDS011;12883;52.662;5.196;2023-06-10T03:23:28;6.88;;;6.88;;
24787;SDS011;12883;52.662;5.196;2023-06-10T03:25:54;6.78;;;6.78;;
24787;SDS011;12883;52.662;5.196;2023-06-10T03:28:20;6.50;;;6.50;;
24787;SDS011;12883;52.662;5.196;2023-06-10T03:30:46;6.40;;;6.40;;
24787;SDS011;12883;52.662;5.196;2023-06-10T03:33:12;6.68;;;6.68;;
24787;SDS011;12883;52.662;5.196;2023-06-10T03:35:37;6.22;;;6.22;;
24787;SDS011;12883;52.662;5.196;2023-06-10T03:38:03;6.35;;;6.35;;
24787;SDS011;12883;52.662;5.196;2023-06-10T03:40:28;6.30;;;6.30;;
24787;SDS011;12883;52.662;5.196;2023-06-10T03:42:55;6.28;;;6.28;;
24787;SDS011;12883;52.662;5.196;2023-06-10T03:45:20;6.50;;;6.50;;
24787;SDS011;12883;52.662;5.196;2023-06-10T03:47:46;6.80;;;6.80;;
24787;SDS011;12883;52.662;5.196;2023-06-10T03:50:13;6.10;;;6.10;;
24787;SDS011;12883;52.662;5.196;2023-06-10T03:52:38;6.22;;;6.22;;
24787;SDS011;12883;52.662;5.196;2023-06-10T03:55:04;6.40;;;6.40;;
24787;SDS011;12883;52.662;5.196;2023-06-10T03:57:30;6.10;;;6.10;;
24787;SDS011;12883;52.662;5.196;2023-06-10T03:59:55;6.57;;;6.57;;
24787;SDS011;12883;52.662;5.196;2023-06-10T04:02:21;6.82;;;6.82;;
24787;SDS011;12883;52.662;5.196;2023-06-10T04:04:47;6.88;;;6.88;;
24787;SDS011;12883;52.662;5.196;2023-06-10T04:07:13;7.13;;;7.13;;
24787;SDS011;12883;52.662;5.196;2023-06-10T04:09:39;7.40;;;7.40;;
24787;SDS011;12883;52.662;5.196;2023-06-10T04:12:04;6.57;;;6.57;;
24787;SDS011;12883;52.662;5.196;2023-06-10T04:14:33;7.13;;;7.13;;
24787;SDS011;12883;52.662;5.196;2023-06-10T04:16:59;7.50;;;7.50;;
24787;SDS011;12883;52.662;5.196;2023-06-10T04:19:24;7.10;;;7.10;;
24787;SDS011;12883;52.662;5.196;2023-06-10T04:21:50;7.10;;;7.10;;
24787;SDS011;12883;52.662;5.196;2023-06-10T04:24:16;6.90;;;6.90;;
24787;SDS011;12883;52.662;5.196;2023-06-10T04:26:41;6.80;;;6.80;;
24787;SDS011;12883;52.662;5.196;2023-06-10T04:29:07;5.70;;;5.70;;
24787;SDS011;12883;52.662;5.196;2023-06-10T04:31:32;7.18;;;7.18;;
24787;SDS011;12883;52.662;5.196;2023-06-10T04:33:59;6.65;;;6.65;;
24787;SDS011;12883;52.662;5.196;2023-06-10T04:36:25;6.60;;;6.60;;
24787;SDS011;12883;52.662;5.196;2023-06-10T04:38:51;7.10;;;7.10;;
24787;SDS011;12883;52.662;5.196;2023-06-10T04:41:17;6.85;;;6.85;;
24787;SDS011;12883;52.662;5.196;2023-06-10T04:43:42;7.28;;;7.28;;
24787;SDS011;12883;52.662;5.196;2023-06-10T04:46:08;6.82;;;6.82;;
24787;SDS011;12883;52.662;5.196;2023-06-10T04:48:33;6.43;;;6.43;;
24787;SDS011;12883;52.662;5.196;2023-06-10T04:51:00;6.75;;;6.75;;
24787;SDS011;12883;52.662;5.196;2023-06-10T04:53:25;6.43;;;6.43;;
24787;SDS011;12883;52.662;5.196;2023-06-10T04:55:51;7.25;;;7.25;;
24787;SDS011;12883;52.662;5.196;2023-06-10T04:58:16;6.47;;;6.47;;
24787;SDS011;12883;52.662;5.196;2023-06-10T05:00:42;7.57;;;7.57;;
24787;SDS011;12883;52.662;5.196;2023-06-10T05:03:07;7.05;;;7.05;;
24787;SDS011;12883;52.662;5.196;2023-06-10T05:05:32;6.55;;;6.55;;
24787;SDS011;12883;52.662;5.196;2023-06-10T05:07:58;7.18;;;7.18;;
24787;SDS011;12883;52.662;5.196;2023-06-10T05:10:23;7.22;;;7.22;;
24787;SDS011;12883;52.662;5.196;2023-06-10T05:12:48;7.80;;;7.80;;
24787;SDS011;12883;52.662;5.196;2023-06-10T05:15:14;6.82;;;6.82;;
24787;SDS011;12883;52.662;5.196;2023-06-10T05:17:39;6.75;;;6.75;;
24787;SDS011;12883;52.662;5.196;2023-06-10T05:20:05;6.63;;;6.63;;
24787;SDS011;12883;52.662;5.196;2023-06-10T05:22:31;7.07;;;7.07;;
24787;SDS011;12883;52.662;5.196;2023-06-10T05:24:57;6.57;;;6.57;;
24787;SDS011;12883;52.662;5.196;2023-06-10T05:27:22;6.82;;;6.82;;
24787;SDS011;12883;52.662;5.196;2023-06-10T05:29:47;7.05;;;7.05;;
24787;SDS011;12883;52.662;5.196;2023-06-10T05:32:13;7.07;;;7.07;;
24787;SDS011;12883;52.662;5.196;2023-06-10T05:34:38;6.80;;;6.80;;
24787;SDS011;12883;52.662;5.196;2023-06-10T05:37:04;6.65;;;6.65;;
24787;SDS011;12883;52.662;5.196;2023-06-10T05:39:30;6.45;;;6.45;;
24787;SDS011;12883;52.662;5.196;2023-06-10T05:41:55;7.22;;;7.22;;
24787;SDS011;12883;52.662;5.196;2023-06-10T05:44:21;7.43;;;7.43;;
24787;SDS011;12883;52.662;5.196;2023-06-10T05:46:46;7.68;;;7.57;;
24787;SDS011;12883;52.662;5.196;2023-06-10T05:49:12;6.75;;;6.75;;
24787;SDS011;12883;52.662;5.196;2023-06-10T05:51:37;6.50;;;6.50;;
24787;SDS011;12883;52.662;5.196;2023-06-10T05:54:03;7.28;;;7.28;;
24787;SDS011;12883;52.662;5.196;2023-06-10T05:56:28;6.80;;;6.80;;
24787;SDS011;12883;52.662;5.196;2023-06-10T05:58:54;6.65;;;6.65;;
24787;SDS011;12883;52.662;5.196;2023-06-10T06:01:21;6.90;;;6.90;;
24787;SDS011;12883;52.662;5.196;2023-06-10T06:03:46;6.55;;;6.55;;
24787;SDS011;12883;52.662;5.196;2023-06-10T06:06:11;7.00;;;7.00;;
24787;SDS011;12883;52.662;5.196;2023-06-10T06:08:37;6.13;;;6.13;;
24787;SDS011;12883;52.662;5.196;2023-06-10T06:11:02;6.72;;;6.72;;
24787;SDS011;12883;52.662;5.196;2023-06-10T06:13:28;6.57;;;6.57;;
24787;SDS011;12883;52.662;5.196;2023-06-10T06:15:53;6.80;;;6.80;;
24787;SDS011;12883;52.662;5.196;2023-06-10T06:18:18;6.45;;;6.45;;
24787;SDS011;12883;52.662;5.196;2023-06-10T06:20:44;6.75;;;6.75;;
24787;SDS011;12883;52.662;5.196;2023-06-10T06:23:09;7.28;;;7.28;;
24787;SDS011;12883;52.662;5.196;2023-06-10T06:25:36;6.38;;;6.38;;
24787;SDS011;12883;52.662;5.196;2023-06-10T06:28:04;6.22;;;6.22;;
24787;SDS011;12883;52.662;5.196;2023-06-10T06:30:31;6.60;;;6.60;;
24787;SDS011;12883;52.662;5.196;2023-06-10T06:32:56;6.38;;;6.38;;
24787;SDS011;12883;52.662;5.196;2023-06-10T06:35:22;7.05;;;7.05;;
24787;SDS011;12883;52.662;5.196;2023-06-10T06:37:47;6.38;;;6.38;;
24787;SDS011;12883;52.662;5.196;2023-06-10T06:40:13;6.85;;;6.85;;
24787;SDS011;12883;52.662;5.196;2023-06-10T06:42:39;6.25;;;6.25;;
24787;SDS011;12883;52.662;5.196;2023-06-10T06:45:04;6.38;;;6.38;;
24787;SDS011;12883;52.662;5.196;2023-06-10T06:47:30;6.18;;;6.18;;
24787;SDS011;12883;52.662;5.196;2023-06-10T06:49:55;6.05;;;6.05;;
24787;SDS011;12883;52.662;5.196;2023-06-10T06:52:21;6.70;;;6.70;;
24787;SDS011;12883;52.662;5.196;2023-06-10T06:54:47;6.47;;;6.47;;
24787;SDS011;12883;52.662;5.196;2023-06-10T06:57:12;6.35;;;6.35;;
24787;SDS011;12883;52.662;5.196;2023-06-10T06:59:38;6.40;;;6.40;;
24787;SDS011;12883;52.662;5.196;2023-06-10T07:02:03;6.80;;;6.80;;
24787;SDS011;12883;52.662;5.196;2023-06-10T07:04:29;6.07;;;6.07;;
24787;SDS011;12883;52.662;5.196;2023-06-10T07:06:55;6.22;;;6.22;;
24787;SDS011;12883;52.662;5.196;2023-06-10T07:09:20;6.78;;;6.78;;
24787;SDS011;12883;52.662;5.196;2023-06-10T07:11:46;5.97;;;5.97;;
24787;SDS011;12883;52.662;5.196;2023-06-10T07:14:11;6.57;;;6.57;;
24787;SDS011;12883;52.662;5.196;2023-06-10T07:16:36;6.70;;;6.70;;
24787;SDS011;12883;52.662;5.196;2023-06-10T07:19:02;6.20;;;6.20;;
24787;SDS011;12883;52.662;5.196;2023-06-10T07:21:27;6.45;;;6.45;;
24787;SDS011;12883;52.662;5.196;2023-06-10T07:23:54;6.50;;;6.50;;
24787;SDS011;12883;52.662;5.196;2023-06-10T07:26:21;5.97;;;5.97;;
24787;SDS011;12883;52.662;5.196;2023-06-10T07:28:47;5.88;;;5.88;;
24787;SDS011;12883;52.662;5.196;2023-06-10T07:31:13;6.38;;;6.38;;
24787;SDS011;12883;52.662;5.196;2023-06-10T07:33:38;6.00;;;6.00;;
24787;SDS011;12883;52.662;5.196;2023-06-10T07:36:04;6.40;;;6.40;;
24787;SDS011;12883;52.662;5.196;2023-06-10T07:38:30;6.47;;;6.47;;
24787;SDS011;12883;52.662;5.196;2023-06-10T07:40:56;6.35;;;6.35;;
24787;SDS011;12883;52.662;5.196;2023-06-10T07:43:21;7.30;;;7.30;;
24787;SDS011;12883;52.662;5.196;2023-06-10T07:45:47;6.68;;;6.68;;
24787;SDS011;12883;52.662;5.196;2023-06-10T07:48:12;5.90;;;5.90;;
24787;SDS011;12883;52.662;5.196;2023-06-10T07:50:37;6.20;;;6.20;;
24787;SDS011;12883;52.662;5.196;2023-06-10T07:53:03;6.15;;;6.15;;
24787;SDS011;12883;52.662;5.196;2023-06-10T07:55:28;6.18;;;6.18;;
24787;SDS011;12883;52.662;5.196;2023-06-10T07:57:54;6.63;;;6.63;;
24787;SDS011;12883;52.662;5.196;2023-06-10T08:00:20;6.32;;;6.32;;
24787;SDS011;12883;52.662;5.196;2023-06-10T08:02:46;5.95;;;5.95;;
24787;SDS011;12883;52.662;5.196;2023-06-10T08:05:11;6.57;;;6.57;;
24787;SDS011;12883;52.662;5.196;2023-06-10T08:07:37;5.95;;;5.95;;
24787;SDS011;12883;52.662;5.196;2023-06-10T08:10:02;6.35;;;6.35;;
24787;SDS011;12883;52.662;5.196;2023-06-10T08:12:29;6.07;;;6.07;;
24787;SDS011;12883;52.662;5.196;2023-06-10T08:14:55;5.95;;;5.95;;
24787;SDS011;12883;52.662;5.196;2023-06-10T08:17:20;6.68;;;6.68;;
24787;SDS011;12883;52.662;5.196;2023-06-10T08:19:46;5.68;;;5.68;;
24787;SDS011;12883;52.662;5.196;2023-06-10T08:22:11;6.00;;;6.00;;
24787;SDS011;12883;52.662;5.196;2023-06-10T08:24:37;6.50;;;6.50;;
24787;SDS011;12883;52.662;5.196;2023-06-10T08:27:03;6.13;;;6.13;;
24787;SDS011;12883;52.662;5.196;2023-06-10T08:29:28;6.40;;;6.40;;
24787;SDS011;12883;52.662;5.196;2023-06-10T08:31:56;6.13;;;6.13;;
24787;SDS011;12883;52.662;5.196;2023-06-10T08:34:21;5.75;;;5.75;;
24787;SDS011;12883;52.662;5.196;2023-06-10T08:36:46;5.82;;;5.82;;
24787;SDS011;12883;52.662;5.196;2023-06-10T08:39:12;5.75;;;5.75;;
24787;SDS011;12883;52.662;5.196;2023-06-10T08:41:40;6.20;;;6.20;;
24787;SDS011;12883;52.662;5.196;2023-06-10T08:44:19;5.93;;;5.93;;
24787;SDS011;12883;52.662;5.196;2023-06-10T08:46:51;5.70;;;5.70;;
24787;SDS011;12883;52.662;5.196;2023-06-10T08:49:18;5.80;;;5.80;;
24787;SDS011;12883;52.662;5.196;2023-06-10T08:51:50;5.85;;;5.85;;
24787;SDS011;12883;52.662;5.196;2023-06-10T08:54:23;6.20;;;6.20;;
24787;SDS011;12883;52.662;5.196;2023-06-10T08:56:51;5.60;;;5.60;;
24787;SDS011;12883;52.662;5.196;2023-06-10T08:59:20;6.05;;;6.05;;
24787;SDS011;12883;52.662;5.196;2023-06-10T09:01:46;5.93;;;5.82;;
24787;SDS011;12883;52.662;5.196;2023-06-10T09:04:12;5.55;;;5.55;;
24787;SDS011;12883;52.662;5.196;2023-06-10T09:06:38;5.95;;;5.95;;
24787;SDS011;12883;52.662;5.196;2023-06-10T09:09:06;5.82;;;5.82;;
24787;SDS011;12883;52.662;5.196;2023-06-10T09:11:32;5.85;;;5.85;;
24787;SDS011;12883;52.662;5.196;2023-06-10T09:13:58;5.90;;;5.90;;
24787;SDS011;12883;52.662;5.196;2023-06-10T09:16:26;5.20;;;5.20;;
24787;SDS011;12883;52.662;5.196;2023-06-10T09:18:52;5.88;;;5.88;;
24787;SDS011;12883;52.662;5.196;2023-06-10T09:21:23;6.18;;;6.18;;
24787;SDS011;12883;52.662;5.196;2023-06-10T09:23:50;5.10;;;5.10;;
24787;SDS011;12883;52.662;5.196;2023-06-10T09:26:16;5.90;;;5.90;;
24787;SDS011;12883;52.662;5.196;2023-06-10T09:28:48;5.32;;;5.32;;
24787;SDS011;12883;52.662;5.196;2023-06-10T09:31:16;5.95;;;5.95;;
24787;SDS011;12883;52.662;5.196;2023-06-10T09:33:43;5.85;;;5.85;;
24787;SDS011;12883;52.662;5.196;2023-06-10T09:36:09;5.70;;;5.70;;
24787;SDS011;12883;52.662;5.196;2023-06-10T09:38:35;6.82;;;6.82;;
24787;SDS011;12883;52.662;5.196;2023-06-10T09:41:01;5.72;;;5.72;;
24787;SDS011;12883;52.662;5.196;2023-06-10T09:46:07;5.32;;;5.32;;
24787;SDS011;12883;52.662;5.196;2023-06-10T09:48:40;5.60;;;5.60;;
24787;SDS011;12883;52.662;5.196;2023-06-10T09:51:09;4.57;;;4.57;;
24787;SDS011;12883;52.662;5.196;2023-06-10T09:53:35;5.35;;;5.35;;
24787;SDS011;12883;52.662;5.196;2023-06-10T09:56:01;5.47;;;5.47;;
24787;SDS011;12883;52.662;5.196;2023-06-10T09:58:33;4.78;;;4.78;;
24787;SDS011;12883;52.662;5.196;2023-06-10T10:01:00;4.78;;;4.78;;
24787;SDS011;12883;52.662;5.196;2023-06-10T10:03:29;4.63;;;4.63;;
24787;SDS011;12883;52.662;5.196;2023-06-10T10:05:59;5.10;;;5.10;;
24787;SDS011;12883;52.662;5.196;2023-06-10T10:08:28;5.22;;;5.22;;
24787;SDS011;12883;52.662;5.196;2023-06-10T10:10:53;5.00;;;5.00;;
24787;SDS011;12883;52.662;5.196;2023-06-10T10:13:20;5.20;;;5.20;;
24787;SDS011;12883;52.662;5.196;2023-06-10T10:15:45;4.80;;;4.80;;
24787;SDS011;12883;52.662;5.196;2023-06-10T10:18:14;5.15;;;5.15;;
24787;SDS011;12883;52.662;5.196;2023-06-10T10:20:45;5.18;;;5.18;;
24787;SDS011;12883;52.662;5.196;2023-06-10T10:23:14;5.40;;;5.40;;
24787;SDS011;12883;52.662;5.196;2023-06-10T10:25:49;4.35;;;4.35;;
24787;SDS011;12883;52.662;5.196;2023-06-10T10:28:17;4.65;;;4.65;;
24787;SDS011;12883;52.662;5.196;2023-06-10T10:30:47;5.10;;;5.10;;
24787;SDS011;12883;52.662;5.196;2023-06-10T10:35:58;5.05;;;5.05;;
24787;SDS011;12883;52.662;5.196;2023-06-10T10:38:24;5.68;;;5.68;;
24787;SDS011;12883;52.662;5.196;2023-06-10T10:40:50;4.20;;;4.20;;
24787;SDS011;12883;52.662;5.196;2023-06-10T10:43:16;4.80;;;4.80;;
24787;SDS011;12883;52.662;5.196;2023-06-10T10:45:42;5.15;;;5.15;;
24787;SDS011;12883;52.662;5.196;2023-06-10T10:48:11;5.25;;;5.25;;
24787;SDS011;12883;52.662;5.196;2023-06-10T10:50:37;5.30;;;5.30;;
24787;SDS011;12883;52.662;5.196;2023-06-10T10:53:04;4.65;;;4.65;;
24787;SDS011;12883;52.662;5.196;2023-06-10T10:55:30;5.03;;;5.03;;
24787;SDS011;12883;52.662;5.196;2023-06-10T10:57:58;4.50;;;4.50;;
24787;SDS011;12883;52.662;5.196;2023-06-10T11:00:43;4.35;;;4.35;;
24787;SDS011;12883;52.662;5.196;2023-06-10T11:03:14;4.68;;;4.68;;
24787;SDS011;12883;52.662;5.196;2023-06-10T11:05:44;4.65;;;4.65;;
24787;SDS011;12883;52.662;5.196;2023-06-10T11:08:14;5.45;;;5.35;;
24787;SDS011;12883;52.662;5.196;2023-06-10T11:10:41;4.82;;;4.82;;
24787;SDS011;12883;52.662;5.196;2023-06-10T11:13:15;4.68;;;4.68;;
24787;SDS011;12883;52.662;5.196;2023-06-10T11:15:46;4.72;;;4.72;;
24787;SDS011;12883;52.662;5.196;2023-06-10T11:18:20;4.88;;;4.88;;
24787;SDS011;12883;52.662;5.196;2023-06-10T11:20:59;4.88;;;4.88;;
24787;SDS011;12883;52.662;5.196;2023-06-10T11:31:20;5.25;;;5.25;;
24787;SDS011;12883;52.662;5.196;2023-06-10T11:33:47;4.63;;;4.63;;
24787;SDS011;12883;52.662;5.196;2023-06-10T11:36:13;5.35;;;5.35;;
24787;SDS011;12883;52.662;5.196;2023-06-10T11:38:40;5.05;;;5.05;;
24787;SDS011;12883;52.662;5.196;2023-06-10T11:41:06;5.53;;;5.53;;
24787;SDS011;12883;52.662;5.196;2023-06-10T11:43:32;4.57;;;4.57;;
24787;SDS011;12883;52.662;5.196;2023-06-10T11:45:58;4.60;;;4.60;;
24787;SDS011;12883;52.662;5.196;2023-06-10T11:48:25;5.25;;;5.25;;
24787;SDS011;12883;52.662;5.196;2023-06-10T11:50:53;4.95;;;4.95;;
24787;SDS011;12883;52.662;5.196;2023-06-10T11:53:19;5.15;;;5.15;;
24787;SDS011;12883;52.662;5.196;2023-06-10T11:55:45;5.05;;;5.05;;
24787;SDS011;12883;52.662;5.196;2023-06-10T11:58:15;4.72;;;4.72;;
24787;SDS011;12883;52.662;5.196;2023-06-10T12:00:48;4.63;;;4.63;;
24787;SDS011;12883;52.662;5.196;2023-06-10T12:03:15;4.35;;;4.35;;
24787;SDS011;12883;52.662;5.196;2023-06-10T12:05:52;4.82;;;4.82;;
24787;SDS011;12883;52.662;5.196;2023-06-10T12:08:25;4.80;;;4.80;;
24787;SDS011;12883;52.662;5.196;2023-06-10T12:10:52;4.80;;;4.80;;
24787;SDS011;12883;52.662;5.196;2023-06-10T12:13:18;4.03;;;4.03;;
24787;SDS011;12883;52.662;5.196;2023-06-10T12:15:44;4.85;;;4.85;;
24787;SDS011;12883;52.662;5.196;2023-06-10T12:18:20;4.90;;;4.90;;
24787;SDS011;12883;52.662;5.196;2023-06-10T12:20:48;4.50;;;4.50;;
24787;SDS011;12883;52.662;5.196;2023-06-10T12:23:15;4.53;;;4.53;;
24787;SDS011;12883;52.662;5.196;2023-06-10T12:25:51;5.25;;;5.25;;
24787;SDS011;12883;52.662;5.196;2023-06-10T12:28:23;4.57;;;4.57;;
24787;SDS011;12883;52.662;5.196;2023-06-10T12:30:50;4.55;;;4.55;;
24787;SDS011;12883;52.662;5.196;2023-06-10T12:33:19;4.50;;;4.50;;
24787;SDS011;12883;52.662;5.196;2023-06-10T12:38:17;4.53;;;4.53;;
24787;SDS011;12883;52.662;5.196;2023-06-10T12:40:49;4.10;;;4.10;;
24787;SDS011;12883;52.662;5.196;2023-06-10T12:43:24;4.65;;;4.65;;
24787;SDS011;12883;52.662;5.196;2023-06-10T12:45:51;4.85;;;4.85;;
24787;SDS011;12883;52.662;5.196;2023-06-10T12:48:23;4.72;;;4.72;;
24787;SDS011;12883;52.662;5.196;2023-06-10T12:53:19;5.05;;;5.05;;
24787;SDS011;12883;52.662;5.196;2023-06-10T12:55:45;4.30;;;4.30;;
24787;SDS011;12883;52.662;5.196;2023-06-10T12:58:11;4.13;;;4.13;;
24787;SDS011;12883;52.662;5.196;2023-06-10T13:00:38;4.50;;;4.50;;
24787;SDS011;12883;52.662;5.196;2023-06-10T13:03:04;4.32;;;4.32;;
24787;SDS011;12883;52.662;5.196;2023-06-10T13:05:33;4.65;;;4.65;;
24787;SDS011;12883;52.662;5.196;2023-06-10T13:07:59;4.40;;;4.40;;
24787;SDS011;12883;52.662;5.196;2023-06-10T13:10:24;4.70;;;4.70;;
24787;SDS011;12883;52.662;5.196;2023-06-10T13:12:51;4.47;;;4.47;;
24787;SDS011;12883;52.662;5.196;2023-06-10T13:15:17;4.47;;;4.47;;
24787;SDS011;12883;52.662;5.196;2023-06-10T13:17:43;4.45;;;4.45;;
24787;SDS011;12883;52.662;5.196;2023-06-10T13:20:10;3.75;;;3.75;;
24787;SDS011;12883;52.662;5.196;2023-06-10T13:22:36;4.30;;;4.30;;
24787;SDS011;12883;52.662;5.196;2023-06-10T13:25:05;4.47;;;4.47;;
24787;SDS011;12883;52.662;5.196;2023-06-10T13:27:34;4.68;;;4.68;;
24787;SDS011;12883;52.662;5.196;2023-06-10T13:30:00;4.78;;;4.78;;
24787;SDS011;12883;52.662;5.196;2023-06-10T13:32:26;4.60;;;4.60;;
24787;SDS011;12883;52.662;5.196;2023-06-10T13:34:51;4.60;;;4.60;;
24787;SDS011;12883;52.662;5.196;2023-06-10T13:37:18;3.97;;;3.97;;
24787;SDS011;12883;52.662;5.196;2023-06-10T13:39:43;4.15;;;4.15;;
24787;SDS011;12883;52.662;5.196;2023-06-10T13:42:09;4.22;;;4.22;;
24787;SDS011;12883;52.662;5.196;2023-06-10T13:44:34;4.38;;;4.38;;
24787;SDS011;12883;52.662;5.196;2023-06-10T13:47:04;4.30;;;4.30;;
24787;SDS011;12883;52.662;5.196;2023-06-10T13:49:30;4.20;;;4.20;;
24787;SDS011;12883;52.662;5.196;2023-06-10T13:51:56;4.55;;;4.55;;
24787;SDS011;12883;52.662;5.196;2023-06-10T13:54:21;4.10;;;4.10;;
24787;SDS011;12883;52.662;5.196;2023-06-10T13:56:47;4.20;;;4.20;;
24787;SDS011;12883;52.662;5.196;2023-06-10T13:59:12;4.10;;;4.10;;
24787;SDS011;12883;52.662;5.196;2023-06-10T14:01:38;3.58;;;3.58;;
24787;SDS011;12883;52.662;5.196;2023-06-10T14:04:03;3.88;;;3.88;;
24787;SDS011;12883;52.662;5.196;2023-06-10T14:06:29;3.63;;;3.63;;
24787;SDS011;12883;52.662;5.196;2023-06-10T14:08:55;3.50;;;3.50;;
24787;SDS011;12883;52.662;5.196;2023-06-10T14:11:21;3.40;;;3.40;;
24787;SDS011;12883;52.662;5.196;2023-06-10T14:13:46;3.90;;;3.90;;
24787;SDS011;12883;52.662;5.196;2023-06-10T14:16:12;3.65;;;3.65;;
24787;SDS011;12883;52.662;5.196;2023-06-10T14:18:37;3.72;;;3.72;;
24787;SDS011;12883;52.662;5.196;2023-06-10T14:21:03;3.67;;;3.67;;
24787;SDS011;12883;52.662;5.196;2023-06-10T14:23:28;3.42;;;3.42;;
24787;SDS011;12883;52.662;5.196;2023-06-10T14:25:54;3.28;;;3.28;;
24787;SDS011;12883;52.662;5.196;2023-06-10T14:28:19;3.72;;;3.72;;
24787;SDS011;12883;52.662;5.196;2023-06-10T14:30:45;3.63;;;3.63;;
24787;SDS011;12883;52.662;5.196;2023-06-10T14:33:10;3.28;;;3.28;;
24787;SDS011;12883;52.662;5.196;2023-06-10T14:35:36;3.45;;;3.45;;
24787;SDS011;12883;52.662;5.196;2023-06-10T14:38:01;3.38;;;3.38;;
24787;SDS011;12883;52.662;5.196;2023-06-10T14:40:26;3.08;;;3.08;;
24787;SDS011;12883;52.662;5.196;2023-06-10T14:42:54;3.35;;;3.35;;
24787;SDS011;12883;52.662;5.196;2023-06-10T14:45:20;3.38;;;3.38;;
24787;SDS011;12883;52.662;5.196;2023-06-10T14:47:45;3.70;;;3.70;;
24787;SDS011;12883;52.662;5.196;2023-06-10T14:50:12;2.88;;;2.88;;
24787;SDS011;12883;52.662;5.196;2023-06-10T14:52:38;3.50;;;3.50;;
24787;SDS011;12883;52.662;5.196;2023-06-10T14:55:03;3.33;;;3.33;;
24787;SDS011;12883;52.662;5.196;2023-06-10T14:57:29;3.40;;;3.40;;
24787;SDS011;12883;52.662;5.196;2023-06-10T14:59:54;3.40;;;3.40;;
24787;SDS011;12883;52.662;5.196;2023-06-10T15:02:21;3.70;;;3.70;;
24787;SDS011;12883;52.662;5.196;2023-06-10T15:04:47;3.28;;;3.28;;
24787;SDS011;12883;52.662;5.196;2023-06-10T15:07:12;2.83;;;2.83;;
24787;SDS011;12883;52.662;5.196;2023-06-10T15:09:40;3.03;;;3.03;;